sensor_id;sensor_type;location;lat;lon;timestamp;P1;durP1;ratioP1;P2;durP2;ratioP2
24337;SDS011;12457;50.832;4.346;2023-08-17T00:01:07;5.18;;;2.20;;
24337;SDS011;12457;50.832;4.346;2023-08-17T00:03:32;7.95;;;2.40;;
24337;SDS011;12457;50.832;4.346;2023-08-17T00:05:58;6.43;;;2.30;;
24337;SDS011;12457;50.832;4.346;2023-08-17T00:08:24;4.35;;;2.35;;
24337;SDS011;12457;50.832;4.346;2023-08-17T00:10:49;7.35;;;2.30;;
24337;SDS011;12457;50.832;4.346;2023-08-17T00:13:15;9.23;;;2.47;;
24337;SDS011;12457;50.832;4.346;2023-08-17T00:15:41;4.03;;;2.13;;
24337;SDS011;12457;50.832;4.346;2023-08-17T00:18:07;6.30;;;2.20;;
24337;SDS011;12457;50.832;4.346;2023-08-17T00:20:33;4.72;;;2.22;;
24337;SDS011;12457;50.832;4.346;2023-08-17T00:22:59;4.50;;;2.33;;
24337;SDS011;12457;50.832;4.346;2023-08-17T00:25:24;7.05;;;2.30;;
24337;SDS011;12457;50.832;4.346;2023-08-17T00:27:51;7.72;;;2.97;;
24337;SDS011;12457;50.832;4.346;2023-08-17T00:30:17;5.10;;;2.55;;
24337;SDS011;12457;50.832;4.346;2023-08-17T00:32:44;4.20;;;2.17;;
24337;SDS011;12457;50.832;4.346;2023-08-17T00:35:11;4.88;;;2.70;;
24337;SDS011;12457;50.832;4.346;2023-08-17T00:37:36;4.60;;;2.60;;
24337;SDS011;12457;50.832;4.346;2023-08-17T00:40:02;3.33;;;2.45;;
24337;SDS011;12457;50.832;4.346;2023-08-17T00:42:29;5.45;;;2.72;;
24337;SDS011;12457;50.832;4.346;2023-08-17T00:44:54;8.68;;;3.30;;
24337;SDS011;12457;50.832;4.346;2023-08-17T00:47:20;5.03;;;2.85;;
24337;SDS011;12457;50.832;4.346;2023-08-17T00:49:46;5.07;;;2.80;;
24337;SDS011;12457;50.832;4.346;2023-08-17T00:52:12;6.60;;;3.10;;
24337;SDS011;12457;50.832;4.346;2023-08-17T00:54:37;4.45;;;3.08;;
24337;SDS011;12457;50.832;4.346;2023-08-17T00:57:03;4.75;;;2.80;;
24337;SDS011;12457;50.832;4.346;2023-08-17T00:59:32;7.03;;;3.17;;
24337;SDS011;12457;50.832;4.346;2023-08-17T01:01:59;7.22;;;3.00;;
24337;SDS011;12457;50.832;4.346;2023-08-17T01:04:25;5.10;;;2.90;;
24337;SDS011;12457;50.832;4.346;2023-08-17T01:06:51;9.60;;;3.20;;
24337;SDS011;12457;50.832;4.346;2023-08-17T01:09:17;9.27;;;3.35;;
24337;SDS011;12457;50.832;4.346;2023-08-17T01:14:56;7.28;;;3.20;;
24337;SDS011;12457;50.832;4.346;2023-08-17T01:17:26;9.57;;;3.40;;
24337;SDS011;12457;50.832;4.346;2023-08-17T01:19:57;7.00;;;3.20;;
24337;SDS011;12457;50.832;4.346;2023-08-17T01:22:24;6.50;;;3.58;;
24337;SDS011;12457;50.832;4.346;2023-08-17T01:24:54;6.22;;;3.10;;
24337;SDS011;12457;50.832;4.346;2023-08-17T01:27:22;8.82;;;3.50;;
24337;SDS011;12457;50.832;4.346;2023-08-17T01:29:49;8.00;;;3.00;;
24337;SDS011;12457;50.832;4.346;2023-08-17T01:32:20;11.32;;;3.90;;
24337;SDS011;12457;50.832;4.346;2023-08-17T01:34:54;5.68;;;3.30;;
24337;SDS011;12457;50.832;4.346;2023-08-17T01:37:26;8.40;;;3.80;;
24337;SDS011;12457;50.832;4.346;2023-08-17T01:39:56;7.40;;;3.63;;
24337;SDS011;12457;50.832;4.346;2023-08-17T01:42:25;6.18;;;3.50;;
24337;SDS011;12457;50.832;4.346;2023-08-17T01:44:52;5.43;;;3.42;;
24337;SDS011;12457;50.832;4.346;2023-08-17T01:47:21;7.88;;;3.85;;
24337;SDS011;12457;50.832;4.346;2023-08-17T01:49:47;5.75;;;3.67;;
24337;SDS011;12457;50.832;4.346;2023-08-17T01:52:14;8.90;;;3.65;;
24337;SDS011;12457;50.832;4.346;2023-08-17T01:54:40;7.22;;;3.70;;
24337;SDS011;12457;50.832;4.346;2023-08-17T01:57:06;8.27;;;3.97;;
24337;SDS011;12457;50.832;4.346;2023-08-17T01:59:32;6.28;;;3.83;;
24337;SDS011;12457;50.832;4.346;2023-08-17T02:01:58;10.55;;;4.10;;
24337;SDS011;12457;50.832;4.346;2023-08-17T02:04:24;9.90;;;3.80;;
24337;SDS011;12457;50.832;4.346;2023-08-17T02:06:50;7.47;;;3.80;;
24337;SDS011;12457;50.832;4.346;2023-08-17T02:09:17;5.38;;;3.97;;
24337;SDS011;12457;50.832;4.346;2023-08-17T02:11:43;7.90;;;3.88;;
24337;SDS011;12457;50.832;4.346;2023-08-17T02:14:09;6.32;;;3.67;;
24337;SDS011;12457;50.832;4.346;2023-08-17T02:16:34;6.30;;;3.67;;
24337;SDS011;12457;50.832;4.346;2023-08-17T02:19:00;4.60;;;3.50;;
24337;SDS011;12457;50.832;4.346;2023-08-17T02:21:26;12.55;;;4.30;;
24337;SDS011;12457;50.832;4.346;2023-08-17T02:23:52;8.38;;;3.42;;
24337;SDS011;12457;50.832;4.346;2023-08-17T02:26:17;10.32;;;3.90;;
24337;SDS011;12457;50.832;4.346;2023-08-17T02:28:48;5.28;;;3.72;;
24337;SDS011;12457;50.832;4.346;2023-08-17T02:31:14;9.52;;;3.80;;
24337;SDS011;12457;50.832;4.346;2023-08-17T02:33:40;8.27;;;3.88;;
24337;SDS011;12457;50.832;4.346;2023-08-17T02:36:06;6.53;;;3.85;;
24337;SDS011;12457;50.832;4.346;2023-08-17T02:38:31;8.38;;;3.90;;
24337;SDS011;12457;50.832;4.346;2023-08-17T02:40:57;7.00;;;3.72;;
24337;SDS011;12457;50.832;4.346;2023-08-17T02:43:26;9.15;;;3.40;;
24337;SDS011;12457;50.832;4.346;2023-08-17T02:45:51;7.43;;;3.50;;
24337;SDS011;12457;50.832;4.346;2023-08-17T02:48:18;6.55;;;3.67;;
24337;SDS011;12457;50.832;4.346;2023-08-17T02:50:43;8.48;;;3.83;;
24337;SDS011;12457;50.832;4.346;2023-08-17T02:53:09;9.93;;;4.10;;
24337;SDS011;12457;50.832;4.346;2023-08-17T02:55:36;5.68;;;3.63;;
24337;SDS011;12457;50.832;4.346;2023-08-17T03:00:50;5.35;;;3.53;;
24337;SDS011;12457;50.832;4.346;2023-08-17T03:03:17;10.52;;;3.60;;
24337;SDS011;12457;50.832;4.346;2023-08-17T03:05:42;10.88;;;3.30;;
24337;SDS011;12457;50.832;4.346;2023-08-17T03:08:08;10.27;;;3.72;;
24337;SDS011;12457;50.832;4.346;2023-08-17T03:10:34;6.43;;;3.30;;
24337;SDS011;12457;50.832;4.346;2023-08-17T03:13:02;6.18;;;3.38;;
24337;SDS011;12457;50.832;4.346;2023-08-17T03:15:28;8.40;;;3.40;;
24337;SDS011;12457;50.832;4.346;2023-08-17T03:17:55;5.50;;;3.00;;
24337;SDS011;12457;50.832;4.346;2023-08-17T03:20:21;6.28;;;3.42;;
24337;SDS011;12457;50.832;4.346;2023-08-17T03:22:47;7.80;;;3.40;;
24337;SDS011;12457;50.832;4.346;2023-08-17T03:25:12;8.75;;;3.60;;
24337;SDS011;12457;50.832;4.346;2023-08-17T03:27:39;10.18;;;3.70;;
24337;SDS011;12457;50.832;4.346;2023-08-17T03:30:12;6.93;;;3.50;;
24337;SDS011;12457;50.832;4.346;2023-08-17T03:32:37;5.50;;;3.05;;
24337;SDS011;12457;50.832;4.346;2023-08-17T03:35:04;5.05;;;3.45;;
24337;SDS011;12457;50.832;4.346;2023-08-17T03:37:30;8.13;;;3.63;;
24337;SDS011;12457;50.832;4.346;2023-08-17T03:39:56;7.10;;;3.38;;
24337;SDS011;12457;50.832;4.346;2023-08-17T03:42:21;8.48;;;3.60;;
24337;SDS011;12457;50.832;4.346;2023-08-17T03:44:47;6.05;;;3.33;;
24337;SDS011;12457;50.832;4.346;2023-08-17T03:47:13;12.48;;;3.70;;
24337;SDS011;12457;50.832;4.346;2023-08-17T03:49:39;12.85;;;3.28;;
24337;SDS011;12457;50.832;4.346;2023-08-17T03:52:05;5.97;;;3.20;;
24337;SDS011;12457;50.832;4.346;2023-08-17T03:54:31;6.13;;;3.00;;
24337;SDS011;12457;50.832;4.346;2023-08-17T03:56:56;11.43;;;3.20;;
24337;SDS011;12457;50.832;4.346;2023-08-17T03:59:22;8.80;;;3.55;;
24337;SDS011;12457;50.832;4.346;2023-08-17T04:01:50;8.63;;;2.95;;
24337;SDS011;12457;50.832;4.346;2023-08-17T04:04:16;7.15;;;3.40;;
24337;SDS011;12457;50.832;4.346;2023-08-17T04:06:43;7.43;;;2.78;;
24337;SDS011;12457;50.832;4.346;2023-08-17T04:09:08;7.97;;;3.15;;
24337;SDS011;12457;50.832;4.346;2023-08-17T04:11:34;10.30;;;3.90;;
24337;SDS011;12457;50.832;4.346;2023-08-17T04:14:01;6.47;;;3.17;;
24337;SDS011;12457;50.832;4.346;2023-08-17T04:16:28;9.32;;;3.53;;
24337;SDS011;12457;50.832;4.346;2023-08-17T04:18:53;9.32;;;3.40;;
24337;SDS011;12457;50.832;4.346;2023-08-17T04:21:19;7.70;;;4.15;;
24337;SDS011;12457;50.832;4.346;2023-08-17T04:23:45;10.10;;;3.22;;
24337;SDS011;12457;50.832;4.346;2023-08-17T04:26:11;7.80;;;3.50;;
24337;SDS011;12457;50.832;4.346;2023-08-17T04:28:40;9.52;;;3.92;;
24337;SDS011;12457;50.832;4.346;2023-08-17T04:31:06;9.23;;;3.67;;
24337;SDS011;12457;50.832;4.346;2023-08-17T04:33:33;11.38;;;3.35;;
24337;SDS011;12457;50.832;4.346;2023-08-17T04:35:58;7.28;;;3.38;;
24337;SDS011;12457;50.832;4.346;2023-08-17T04:38:25;8.10;;;3.50;;
24337;SDS011;12457;50.832;4.346;2023-08-17T04:40:51;8.73;;;3.40;;
24337;SDS011;12457;50.832;4.346;2023-08-17T04:43:17;7.75;;;4.00;;
24337;SDS011;12457;50.832;4.346;2023-08-17T04:45:43;7.50;;;3.80;;
24337;SDS011;12457;50.832;4.346;2023-08-17T04:48:12;10.20;;;3.70;;
24337;SDS011;12457;50.832;4.346;2023-08-17T04:50:38;6.88;;;3.65;;
24337;SDS011;12457;50.832;4.346;2023-08-17T04:53:04;8.05;;;3.67;;
24337;SDS011;12457;50.832;4.346;2023-08-17T04:55:30;9.57;;;3.92;;
24337;SDS011;12457;50.832;4.346;2023-08-17T04:57:57;13.93;;;3.28;;
24337;SDS011;12457;50.832;4.346;2023-08-17T05:00:23;11.30;;;3.67;;
24337;SDS011;12457;50.832;4.346;2023-08-17T05:02:55;7.13;;;3.72;;
24337;SDS011;12457;50.832;4.346;2023-08-17T05:05:21;7.85;;;3.47;;
24337;SDS011;12457;50.832;4.346;2023-08-17T05:07:48;7.22;;;3.97;;
24337;SDS011;12457;50.832;4.346;2023-08-17T05:10:14;8.00;;;3.20;;
24337;SDS011;12457;50.832;4.346;2023-08-17T05:12:41;9.25;;;3.35;;
24337;SDS011;12457;50.832;4.346;2023-08-17T05:15:07;6.68;;;3.20;;
24337;SDS011;12457;50.832;4.346;2023-08-17T05:17:33;7.25;;;3.45;;
24337;SDS011;12457;50.832;4.346;2023-08-17T05:20:00;12.77;;;3.47;;
24337;SDS011;12457;50.832;4.346;2023-08-17T05:22:26;6.50;;;3.47;;
24337;SDS011;12457;50.832;4.346;2023-08-17T05:24:52;10.27;;;3.25;;
24337;SDS011;12457;50.832;4.346;2023-08-17T05:27:18;10.60;;;3.45;;
24337;SDS011;12457;50.832;4.346;2023-08-17T05:29:44;7.38;;;2.95;;
24337;SDS011;12457;50.832;4.346;2023-08-17T05:32:09;10.18;;;3.42;;
24337;SDS011;12457;50.832;4.346;2023-08-17T05:34:35;13.02;;;3.47;;
24337;SDS011;12457;50.832;4.346;2023-08-17T05:37:01;8.75;;;3.40;;
24337;SDS011;12457;50.832;4.346;2023-08-17T05:39:28;14.00;;;3.70;;
24337;SDS011;12457;50.832;4.346;2023-08-17T05:41:54;6.85;;;3.42;;
24337;SDS011;12457;50.832;4.346;2023-08-17T05:44:20;8.25;;;3.45;;
24337;SDS011;12457;50.832;4.346;2023-08-17T05:46:45;16.92;;;3.83;;
24337;SDS011;12457;50.832;4.346;2023-08-17T05:49:13;7.32;;;3.22;;
24337;SDS011;12457;50.832;4.346;2023-08-17T05:51:39;7.93;;;3.72;;
24337;SDS011;12457;50.832;4.346;2023-08-17T05:54:05;7.20;;;3.45;;
24337;SDS011;12457;50.832;4.346;2023-08-17T05:56:31;5.85;;;3.50;;
24337;SDS011;12457;50.832;4.346;2023-08-17T05:58:56;8.45;;;3.40;;
24337;SDS011;12457;50.832;4.346;2023-08-17T06:01:22;11.70;;;3.47;;
24337;SDS011;12457;50.832;4.346;2023-08-17T06:03:49;11.65;;;3.67;;
24337;SDS011;12457;50.832;4.346;2023-08-17T06:06:15;6.30;;;3.17;;
24337;SDS011;12457;50.832;4.346;2023-08-17T06:08:40;11.43;;;2.97;;
24337;SDS011;12457;50.832;4.346;2023-08-17T06:11:06;9.32;;;3.45;;
24337;SDS011;12457;50.832;4.346;2023-08-17T06:13:32;12.60;;;3.63;;
24337;SDS011;12457;50.832;4.346;2023-08-17T06:18:48;7.57;;;3.40;;
24337;SDS011;12457;50.832;4.346;2023-08-17T06:21:14;8.85;;;3.63;;
24337;SDS011;12457;50.832;4.346;2023-08-17T06:23:40;7.53;;;3.47;;
24337;SDS011;12457;50.832;4.346;2023-08-17T06:26:06;13.52;;;3.60;;
24337;SDS011;12457;50.832;4.346;2023-08-17T06:28:33;11.48;;;3.83;;
24337;SDS011;12457;50.832;4.346;2023-08-17T06:30:59;5.18;;;3.20;;
24337;SDS011;12457;50.832;4.346;2023-08-17T06:33:24;8.57;;;3.95;;
24337;SDS011;12457;50.832;4.346;2023-08-17T06:35:50;11.95;;;3.70;;
24337;SDS011;12457;50.832;4.346;2023-08-17T06:38:16;10.38;;;3.78;;
24337;SDS011;12457;50.832;4.346;2023-08-17T06:40:42;10.55;;;3.92;;
24337;SDS011;12457;50.832;4.346;2023-08-17T06:43:08;8.52;;;4.18;;
24337;SDS011;12457;50.832;4.346;2023-08-17T06:45:35;12.07;;;3.85;;
24337;SDS011;12457;50.832;4.346;2023-08-17T06:48:00;5.88;;;3.63;;
24337;SDS011;12457;50.832;4.346;2023-08-17T06:50:26;10.55;;;4.63;;
24337;SDS011;12457;50.832;4.346;2023-08-17T06:52:53;15.18;;;4.85;;
24337;SDS011;12457;50.832;4.346;2023-08-17T06:55:19;16.80;;;5.05;;
24337;SDS011;12457;50.832;4.346;2023-08-17T06:57:45;13.70;;;5.13;;
24337;SDS011;12457;50.832;4.346;2023-08-17T07:03:06;10.55;;;4.63;;
24337;SDS011;12457;50.832;4.346;2023-08-17T07:05:33;14.63;;;5.13;;
24337;SDS011;12457;50.832;4.346;2023-08-17T07:07:59;15.25;;;5.25;;
24337;SDS011;12457;50.832;4.346;2023-08-17T07:10:27;12.15;;;4.18;;
24337;SDS011;12457;50.832;4.346;2023-08-17T07:12:52;10.60;;;4.18;;
24337;SDS011;12457;50.832;4.346;2023-08-17T07:15:18;10.68;;;4.43;;
24337;SDS011;12457;50.832;4.346;2023-08-17T07:17:44;11.95;;;4.38;;
24337;SDS011;12457;50.832;4.346;2023-08-17T07:20:10;8.15;;;4.40;;
24337;SDS011;12457;50.832;4.346;2023-08-17T07:22:38;12.15;;;4.13;;
24337;SDS011;12457;50.832;4.346;2023-08-17T07:25:04;15.25;;;4.80;;
24337;SDS011;12457;50.832;4.346;2023-08-17T07:27:33;11.32;;;5.00;;
24337;SDS011;12457;50.832;4.346;2023-08-17T07:29:59;16.15;;;5.90;;
24337;SDS011;12457;50.832;4.346;2023-08-17T07:32:25;8.00;;;4.95;;
24337;SDS011;12457;50.832;4.346;2023-08-17T07:34:51;16.08;;;6.80;;
24337;SDS011;12457;50.832;4.346;2023-08-17T07:37:17;13.60;;;5.53;;
24337;SDS011;12457;50.832;4.346;2023-08-17T07:39:42;24.00;;;6.57;;
24337;SDS011;12457;50.832;4.346;2023-08-17T07:42:09;12.65;;;6.25;;
24337;SDS011;12457;50.832;4.346;2023-08-17T07:44:35;14.38;;;6.03;;
24337;SDS011;12457;50.832;4.346;2023-08-17T07:47:01;11.13;;;5.93;;
24337;SDS011;12457;50.832;4.346;2023-08-17T07:49:39;14.55;;;5.78;;
24337;SDS011;12457;50.832;4.346;2023-08-17T07:52:04;12.85;;;5.35;;
24337;SDS011;12457;50.832;4.346;2023-08-17T07:54:33;11.20;;;5.55;;
24337;SDS011;12457;50.832;4.346;2023-08-17T07:56:59;20.95;;;7.22;;
24337;SDS011;12457;50.832;4.346;2023-08-17T07:59:24;13.13;;;5.55;;
24337;SDS011;12457;50.832;4.346;2023-08-17T08:01:50;14.85;;;5.72;;
24337;SDS011;12457;50.832;4.346;2023-08-17T08:04:16;12.43;;;5.10;;
24337;SDS011;12457;50.832;4.346;2023-08-17T08:06:42;11.20;;;5.60;;
24337;SDS011;12457;50.832;4.346;2023-08-17T08:09:08;12.65;;;5.60;;
24337;SDS011;12457;50.832;4.346;2023-08-17T08:11:33;15.98;;;6.40;;
24337;SDS011;12457;50.832;4.346;2023-08-17T08:13:59;12.13;;;5.90;;
24337;SDS011;12457;50.832;4.346;2023-08-17T08:16:34;11.57;;;5.78;;
24337;SDS011;12457;50.832;4.346;2023-08-17T08:19:00;19.65;;;6.82;;
24337;SDS011;12457;50.832;4.346;2023-08-17T08:21:25;14.23;;;5.32;;
24337;SDS011;12457;50.832;4.346;2023-08-17T08:23:52;12.15;;;5.75;;
24337;SDS011;12457;50.832;4.346;2023-08-17T08:26:18;15.40;;;5.80;;
24337;SDS011;12457;50.832;4.346;2023-08-17T08:28:45;20.55;;;6.80;;
24337;SDS011;12457;50.832;4.346;2023-08-17T08:31:12;13.70;;;5.70;;
24337;SDS011;12457;50.832;4.346;2023-08-17T08:33:38;16.42;;;5.60;;
24337;SDS011;12457;50.832;4.346;2023-08-17T08:36:03;13.77;;;5.97;;
24337;SDS011;12457;50.832;4.346;2023-08-17T08:38:32;11.93;;;6.18;;
24337;SDS011;12457;50.832;4.346;2023-08-17T08:40:58;15.82;;;6.38;;
24337;SDS011;12457;50.832;4.346;2023-08-17T08:43:24;16.98;;;7.00;;
24337;SDS011;12457;50.832;4.346;2023-08-17T08:45:53;16.80;;;7.05;;
24337;SDS011;12457;50.832;4.346;2023-08-17T08:48:27;18.67;;;7.72;;
24337;SDS011;12457;50.832;4.346;2023-08-17T08:50:56;12.75;;;6.88;;
24337;SDS011;12457;50.832;4.346;2023-08-17T08:53:28;16.27;;;7.30;;
24337;SDS011;12457;50.832;4.346;2023-08-17T08:56:01;14.77;;;7.07;;
24337;SDS011;12457;50.832;4.346;2023-08-17T08:58:29;17.73;;;7.35;;
24337;SDS011;12457;50.832;4.346;2023-08-17T09:01:04;13.85;;;8.35;;
24337;SDS011;12457;50.832;4.346;2023-08-17T09:03:34;16.58;;;7.38;;
24337;SDS011;12457;50.832;4.346;2023-08-17T09:06:01;12.95;;;7.95;;
24337;SDS011;12457;50.832;4.346;2023-08-17T09:08:29;13.25;;;6.35;;
24337;SDS011;12457;50.832;4.346;2023-08-17T09:10:55;14.45;;;6.03;;
24337;SDS011;12457;50.832;4.346;2023-08-17T09:13:22;13.85;;;5.15;;
24337;SDS011;12457;50.832;4.346;2023-08-17T09:15:48;11.32;;;5.72;;
24337;SDS011;12457;50.832;4.346;2023-08-17T09:18:15;12.30;;;5.63;;
24337;SDS011;12457;50.832;4.346;2023-08-17T09:20:42;15.55;;;5.65;;
24337;SDS011;12457;50.832;4.346;2023-08-17T09:23:13;13.82;;;5.65;;
24337;SDS011;12457;50.832;4.346;2023-08-17T09:25:47;17.38;;;5.82;;
24337;SDS011;12457;50.832;4.346;2023-08-17T09:28:16;14.93;;;5.85;;
24337;SDS011;12457;50.832;4.346;2023-08-17T09:33:25;9.48;;;5.57;;
24337;SDS011;12457;50.832;4.346;2023-08-17T09:35:53;13.23;;;6.30;;
24337;SDS011;12457;50.832;4.346;2023-08-17T09:38:20;20.77;;;6.15;;
24337;SDS011;12457;50.832;4.346;2023-08-17T09:40:49;12.30;;;6.63;;
24337;SDS011;12457;50.832;4.346;2023-08-17T09:43:17;18.73;;;6.80;;
24337;SDS011;12457;50.832;4.346;2023-08-17T09:45:43;19.85;;;7.05;;
24337;SDS011;12457;50.832;4.346;2023-08-17T09:48:13;11.55;;;6.15;;
24337;SDS011;12457;50.832;4.346;2023-08-17T09:50:42;12.95;;;5.68;;
24337;SDS011;12457;50.832;4.346;2023-08-17T09:53:11;16.17;;;6.80;;
24337;SDS011;12457;50.832;4.346;2023-08-17T09:55:39;15.80;;;7.85;;
24337;SDS011;12457;50.832;4.346;2023-08-17T09:58:06;17.05;;;8.82;;
24337;SDS011;12457;50.832;4.346;2023-08-17T10:00:33;16.77;;;8.23;;
24337;SDS011;12457;50.832;4.346;2023-08-17T10:03:01;16.08;;;7.80;;
24337;SDS011;12457;50.832;4.346;2023-08-17T10:05:30;13.57;;;7.72;;
24337;SDS011;12457;50.832;4.346;2023-08-17T10:08:00;12.90;;;7.68;;
24337;SDS011;12457;50.832;4.346;2023-08-17T10:10:29;11.55;;;7.78;;
24337;SDS011;12457;50.832;4.346;2023-08-17T10:15:37;14.95;;;8.32;;
24337;SDS011;12457;50.832;4.346;2023-08-17T10:18:22;14.27;;;8.15;;
24337;SDS011;12457;50.832;4.346;2023-08-17T10:21:13;16.60;;;8.05;;
24337;SDS011;12457;50.832;4.346;2023-08-17T10:23:46;24.48;;;8.90;;
24337;SDS011;12457;50.832;4.346;2023-08-17T10:26:12;17.25;;;8.57;;
24337;SDS011;12457;50.832;4.346;2023-08-17T10:28:38;11.43;;;7.07;;
24337;SDS011;12457;50.832;4.346;2023-08-17T10:31:05;13.07;;;7.03;;
24337;SDS011;12457;50.832;4.346;2023-08-17T10:33:35;14.23;;;6.97;;
24337;SDS011;12457;50.832;4.346;2023-08-17T10:36:01;18.08;;;7.63;;
24337;SDS011;12457;50.832;4.346;2023-08-17T10:38:28;17.52;;;7.72;;
24337;SDS011;12457;50.832;4.346;2023-08-17T10:41:07;11.93;;;6.93;;
24337;SDS011;12457;50.832;4.346;2023-08-17T10:43:58;15.57;;;6.63;;
24337;SDS011;12457;50.832;4.346;2023-08-17T10:46:34;13.02;;;8.55;;
24337;SDS011;12457;50.832;4.346;2023-08-17T10:52:03;13.68;;;8.80;;
24337;SDS011;12457;50.832;4.346;2023-08-17T10:54:37;18.17;;;8.63;;
24337;SDS011;12457;50.832;4.346;2023-08-17T11:03:00;18.17;;;11.02;;
24337;SDS011;12457;50.832;4.346;2023-08-17T11:08:52;18.02;;;10.18;;
24337;SDS011;12457;50.832;4.346;2023-08-17T11:11:21;16.05;;;10.40;;
24337;SDS011;12457;50.832;4.346;2023-08-17T11:13:48;16.75;;;10.23;;
24337;SDS011;12457;50.832;4.346;2023-08-17T11:16:16;20.27;;;10.98;;
24337;SDS011;12457;50.832;4.346;2023-08-17T11:18:47;17.83;;;10.05;;
24337;SDS011;12457;50.832;4.346;2023-08-17T11:21:15;19.05;;;10.07;;
24337;SDS011;12457;50.832;4.346;2023-08-17T11:23:42;17.98;;;9.50;;
24337;SDS011;12457;50.832;4.346;2023-08-17T11:26:08;23.85;;;10.05;;
24337;SDS011;12457;50.832;4.346;2023-08-17T11:28:34;15.32;;;9.18;;
24337;SDS011;12457;50.832;4.346;2023-08-17T11:31:07;14.35;;;8.27;;
24337;SDS011;12457;50.832;4.346;2023-08-17T11:33:43;16.67;;;7.75;;
24337;SDS011;12457;50.832;4.346;2023-08-17T11:36:12;15.02;;;7.70;;
24337;SDS011;12457;50.832;4.346;2023-08-17T11:38:41;15.13;;;8.30;;
24337;SDS011;12457;50.832;4.346;2023-08-17T11:41:09;15.65;;;8.25;;
24337;SDS011;12457;50.832;4.346;2023-08-17T11:43:36;15.70;;;7.68;;
24337;SDS011;12457;50.832;4.346;2023-08-17T11:46:02;13.55;;;7.53;;
24337;SDS011;12457;50.832;4.346;2023-08-17T11:48:42;14.38;;;7.65;;
24337;SDS011;12457;50.832;4.346;2023-08-17T11:51:07;13.45;;;7.57;;
24337;SDS011;12457;50.832;4.346;2023-08-17T11:53:35;16.23;;;8.30;;
24337;SDS011;12457;50.832;4.346;2023-08-17T11:56:01;16.80;;;7.93;;
24337;SDS011;12457;50.832;4.346;2023-08-17T11:58:40;10.93;;;8.52;;
24337;SDS011;12457;50.832;4.346;2023-08-17T12:01:12;10.40;;;7.45;;
24337;SDS011;12457;50.832;4.346;2023-08-17T12:03:41;28.05;;;17.27;;
24337;SDS011;12457;50.832;4.346;2023-08-17T12:06:07;17.00;;;7.43;;
24337;SDS011;12457;50.832;4.346;2023-08-17T12:08:34;16.38;;;8.82;;
24337;SDS011;12457;50.832;4.346;2023-08-17T12:11:00;9.88;;;7.53;;
24337;SDS011;12457;50.832;4.346;2023-08-17T12:13:34;10.90;;;7.80;;
24337;SDS011;12457;50.832;4.346;2023-08-17T12:16:00;14.80;;;8.35;;
24337;SDS011;12457;50.832;4.346;2023-08-17T12:18:27;14.60;;;8.00;;
24337;SDS011;12457;50.832;4.346;2023-08-17T12:20:53;14.63;;;7.80;;
24337;SDS011;12457;50.832;4.346;2023-08-17T12:23:19;13.20;;;8.13;;
24337;SDS011;12457;50.832;4.346;2023-08-17T12:25:45;20.27;;;9.05;;
24337;SDS011;12457;50.832;4.346;2023-08-17T12:28:14;11.77;;;7.30;;
24337;SDS011;12457;50.832;4.346;2023-08-17T12:30:41;14.07;;;9.15;;
24337;SDS011;12457;50.832;4.346;2023-08-17T12:33:07;13.23;;;8.20;;
24337;SDS011;12457;50.832;4.346;2023-08-17T12:35:32;14.90;;;8.75;;
24337;SDS011;12457;50.832;4.346;2023-08-17T12:37:59;18.20;;;8.82;;
24337;SDS011;12457;50.832;4.346;2023-08-17T12:40:27;23.00;;;13.65;;
24337;SDS011;12457;50.832;4.346;2023-08-17T12:42:53;14.98;;;8.45;;
24337;SDS011;12457;50.832;4.346;2023-08-17T12:45:19;19.17;;;9.00;;
24337;SDS011;12457;50.832;4.346;2023-08-17T12:47:44;14.20;;;8.77;;
24337;SDS011;12457;50.832;4.346;2023-08-17T12:50:10;15.75;;;8.05;;
24337;SDS011;12457;50.832;4.346;2023-08-17T12:52:36;17.95;;;9.63;;
24337;SDS011;12457;50.832;4.346;2023-08-17T12:55:02;15.10;;;9.32;;
24337;SDS011;12457;50.832;4.346;2023-08-17T12:57:27;18.92;;;9.23;;
24337;SDS011;12457;50.832;4.346;2023-08-17T12:59:53;20.92;;;10.98;;
24337;SDS011;12457;50.832;4.346;2023-08-17T13:02:20;13.55;;;8.77;;
24337;SDS011;12457;50.832;4.346;2023-08-17T13:07:40;15.25;;;9.73;;
24337;SDS011;12457;50.832;4.346;2023-08-17T13:10:06;19.23;;;9.85;;
24337;SDS011;12457;50.832;4.346;2023-08-17T13:12:34;21.90;;;10.45;;
24337;SDS011;12457;50.832;4.346;2023-08-17T13:15:01;15.20;;;9.32;;
24337;SDS011;12457;50.832;4.346;2023-08-17T13:17:26;17.55;;;9.48;;
24337;SDS011;12457;50.832;4.346;2023-08-17T13:19:52;20.40;;;10.82;;
24337;SDS011;12457;50.832;4.346;2023-08-17T13:22:18;20.38;;;10.48;;
24337;SDS011;12457;50.832;4.346;2023-08-17T13:24:45;17.10;;;10.15;;
24337;SDS011;12457;50.832;4.346;2023-08-17T13:27:12;20.60;;;10.48;;
24337;SDS011;12457;50.832;4.346;2023-08-17T13:29:38;22.48;;;11.20;;
24337;SDS011;12457;50.832;4.346;2023-08-17T13:32:04;19.70;;;10.77;;
24337;SDS011;12457;50.832;4.346;2023-08-17T13:34:30;19.35;;;11.27;;
24337;SDS011;12457;50.832;4.346;2023-08-17T13:36:55;16.35;;;11.38;;
24337;SDS011;12457;50.832;4.346;2023-08-17T13:39:23;17.10;;;10.77;;
24337;SDS011;12457;50.832;4.346;2023-08-17T13:41:50;25.00;;;12.57;;
24337;SDS011;12457;50.832;4.346;2023-08-17T13:44:17;20.33;;;12.32;;
24337;SDS011;12457;50.832;4.346;2023-08-17T13:46:43;18.63;;;10.70;;
24337;SDS011;12457;50.832;4.346;2023-08-17T13:49:09;20.58;;;11.90;;
24337;SDS011;12457;50.832;4.346;2023-08-17T13:51:34;23.27;;;11.48;;
24337;SDS011;12457;50.832;4.346;2023-08-17T13:54:06;20.88;;;11.40;;
24337;SDS011;12457;50.832;4.346;2023-08-17T13:56:32;23.15;;;11.18;;
24337;SDS011;12457;50.832;4.346;2023-08-17T13:59:01;23.38;;;11.50;;
24337;SDS011;12457;50.832;4.346;2023-08-17T14:01:30;18.52;;;11.75;;
24337;SDS011;12457;50.832;4.346;2023-08-17T14:03:56;15.85;;;11.10;;
24337;SDS011;12457;50.832;4.346;2023-08-17T14:06:22;22.23;;;11.45;;
24337;SDS011;12457;50.832;4.346;2023-08-17T14:08:47;22.88;;;11.90;;
24337;SDS011;12457;50.832;4.346;2023-08-17T14:11:13;20.70;;;11.77;;
24337;SDS011;12457;50.832;4.346;2023-08-17T14:13:45;18.75;;;11.45;;
24337;SDS011;12457;50.832;4.346;2023-08-17T14:16:15;22.65;;;12.45;;
24337;SDS011;12457;50.832;4.346;2023-08-17T14:18:40;18.75;;;12.18;;
24337;SDS011;12457;50.832;4.346;2023-08-17T14:21:06;20.33;;;12.10;;
24337;SDS011;12457;50.832;4.346;2023-08-17T14:23:37;21.17;;;12.73;;
24337;SDS011;12457;50.832;4.346;2023-08-17T14:26:04;18.23;;;11.52;;
24337;SDS011;12457;50.832;4.346;2023-08-17T14:28:30;17.48;;;12.15;;
24337;SDS011;12457;50.832;4.346;2023-08-17T14:31:07;18.33;;;12.05;;
24337;SDS011;12457;50.832;4.346;2023-08-17T14:33:39;26.83;;;13.20;;
24337;SDS011;12457;50.832;4.346;2023-08-17T14:36:15;19.05;;;11.68;;
24337;SDS011;12457;50.832;4.346;2023-08-17T14:38:45;20.83;;;11.60;;
24337;SDS011;12457;50.832;4.346;2023-08-17T14:41:16;17.92;;;11.65;;
24337;SDS011;12457;50.832;4.346;2023-08-17T14:43:42;18.55;;;12.30;;
24337;SDS011;12457;50.832;4.346;2023-08-17T14:46:09;18.77;;;12.95;;
24337;SDS011;12457;50.832;4.346;2023-08-17T14:48:35;23.73;;;12.80;;
24337;SDS011;12457;50.832;4.346;2023-08-17T14:53:47;17.38;;;12.27;;
24337;SDS011;12457;50.832;4.346;2023-08-17T14:56:14;16.33;;;11.13;;
24337;SDS011;12457;50.832;4.346;2023-08-17T14:58:40;23.38;;;11.70;;
24337;SDS011;12457;50.832;4.346;2023-08-17T15:01:06;20.20;;;11.52;;
24337;SDS011;12457;50.832;4.346;2023-08-17T15:03:54;24.88;;;11.63;;
24337;SDS011;12457;50.832;4.346;2023-08-17T15:06:36;16.85;;;11.68;;
24337;SDS011;12457;50.832;4.346;2023-08-17T15:09:04;17.63;;;11.30;;
24337;SDS011;12457;50.832;4.346;2023-08-17T15:11:30;15.48;;;11.85;;
24337;SDS011;12457;50.832;4.346;2023-08-17T15:13:56;19.25;;;12.82;;